createdAt,value
2023-03-29T00:02:30.650Z,55.70
2023-03-29T00:05:02.245Z,55.70
2023-03-29T00:07:33.425Z,55.80
2023-03-29T00:10:02.068Z,55.80
2023-03-29T00:12:29.277Z,55.80
2023-03-29T00:14:56.914Z,55.80
2023-03-29T00:17:23.928Z,55.70
2023-03-29T00:19:51.080Z,55.50
2023-03-29T00:22:18.192Z,55.50
2023-03-29T00:24:47.818Z,55.70
2023-03-29T00:27:16.476Z,55.80
2023-03-29T00:29:46.029Z,55.70
2023-03-29T00:32:13.252Z,55.60
2023-03-29T00:34:42.760Z,55.70
2023-03-29T00:37:09.972Z,55.80
2023-03-29T00:39:37.459Z,55.80
2023-03-29T00:42:04.618Z,55.70
2023-03-29T00:45:06.219Z,55.60
2023-03-29T00:48:13.697Z,55.90
2023-03-29T00:50:47.392Z,55.80
2023-03-29T00:53:27.575Z,56.20
2023-03-29T00:56:12.409Z,55.70
2023-03-29T00:58:46.722Z,55.80
2023-03-29T01:01:25.993Z,55.60
2023-03-29T01:04:03.337Z,55.80
2023-03-29T01:06:34.477Z,55.80
2023-03-29T01:09:08.110Z,55.90
2023-03-29T01:11:46.160Z,55.80
2023-03-29T01:14:26.671Z,55.70
2023-03-29T01:16:54.431Z,55.80
2023-03-29T01:19:25.216Z,55.80
2023-03-29T01:22:09.940Z,55.80
2023-03-29T01:25:11.348Z,56.00
2023-03-29T01:27:56.089Z,56.10
2023-03-29T01:30:56.392Z,56.00
2023-03-29T01:33:42.814Z,56.20
2023-03-29T01:36:19.359Z,56.10
2023-03-29T01:39:07.256Z,55.90
2023-03-29T01:41:48.923Z,56.00
2023-03-29T01:44:25.635Z,55.90
2023-03-29T01:47:12.722Z,55.90
2023-03-29T01:50:05.627Z,56.00
2023-03-29T01:52:38.627Z,56.00
2023-03-29T01:55:18.581Z,55.90
2023-03-29T01:57:48.542Z,55.90
2023-03-29T02:00:27.817Z,55.80
2023-03-29T02:03:00.448Z,55.90
2023-03-29T02:05:30.744Z,55.70
2023-03-29T02:08:00.362Z,55.60
2023-03-29T02:10:28.277Z,55.60
2023-03-29T02:12:56.104Z,55.60
2023-03-29T02:15:23.688Z,55.40
2023-03-29T02:17:51.152Z,55.30
2023-03-29T02:20:26.768Z,55.50
2023-03-29T02:23:05.282Z,55.40
2023-03-29T02:25:32.880Z,55.50
2023-03-29T02:28:00.964Z,55.40
2023-03-29T02:31:05.682Z,55.40
2023-03-29T02:33:46.097Z,55.30
2023-03-29T02:36:34.059Z,55.20
2023-03-29T02:39:04.446Z,55.20
2023-03-29T02:41:32.687Z,55.20
2023-03-29T02:44:02.214Z,55.30
2023-03-29T02:46:29.588Z,55.30
2023-03-29T02:48:58.760Z,55.20
2023-03-29T02:51:31.264Z,55.40
2023-03-29T02:54:06.756Z,55.30
2023-03-29T02:56:55.936Z,55.20
2023-03-29T02:59:23.172Z,55.30
2023-03-29T03:01:50.728Z,55.20
2023-03-29T03:04:18.655Z,55.00
2023-03-29T03:06:45.658Z,54.90
2023-03-29T03:09:13.547Z,54.70
2023-03-29T03:11:43.489Z,54.80
2023-03-29T03:14:10.986Z,54.70
2023-03-29T03:16:38.728Z,54.60
2023-03-29T03:19:06.145Z,54.60
2023-03-29T03:21:34.167Z,54.60
2023-03-29T03:24:01.101Z,54.50
2023-03-29T03:26:30.271Z,54.50
2023-03-29T03:28:58.322Z,54.50
2023-03-29T03:31:55.767Z,54.50
2023-03-29T03:34:41.086Z,54.40
2023-03-29T03:37:08.386Z,54.30
2023-03-29T03:39:36.825Z,54.30
2023-03-29T03:42:08.274Z,54.20
2023-03-29T03:44:40.046Z,54.30
2023-03-29T03:47:39.690Z,54.20
2023-03-29T03:50:22.136Z,54.20
2023-03-29T03:52:49.558Z,54.90
2023-03-29T03:55:16.623Z,54.20
2023-03-29T03:57:48.178Z,54.20
2023-03-29T04:00:22.936Z,54.10
2023-03-29T04:03:06.239Z,54.10
2023-03-29T04:05:40.306Z,54.00
2023-03-29T04:08:08.380Z,53.80
2023-03-29T04:10:56.941Z,54.40
2023-03-29T04:13:28.789Z,53.70
2023-03-29T04:16:19.121Z,53.70
2023-03-29T04:18:46.316Z,53.70
2023-03-29T04:21:13.526Z,53.70
2023-03-29T04:23:40.616Z,53.60
2023-03-29T04:26:07.795Z,53.70
2023-03-29T04:28:50.326Z,53.80
2023-03-29T04:31:27.217Z,54.20
2023-03-29T04:34:04.543Z,54.30
2023-03-29T04:36:31.702Z,54.30
2023-03-29T04:39:01.562Z,54.30
2023-03-29T04:41:29.660Z,54.30
2023-03-29T04:43:59.639Z,54.20
2023-03-29T04:46:31.036Z,54.30
2023-03-29T04:49:25.948Z,54.40
2023-03-29T04:51:54.577Z,54.50
2023-03-29T04:54:25.454Z,54.50
2023-03-29T04:57:11.116Z,54.40
2023-03-29T04:59:56.629Z,54.30
2023-03-29T05:02:44.337Z,54.30
2023-03-29T05:05:13.975Z,54.00
2023-03-29T05:07:41.743Z,53.90
2023-03-29T05:10:11.180Z,53.70
2023-03-29T05:12:38.774Z,53.60
2023-03-29T05:15:06.453Z,53.70
2023-03-29T05:17:34.407Z,53.70
2023-03-29T05:20:12.895Z,53.80
2023-03-29T05:22:42.811Z,53.90
2023-03-29T05:25:14.217Z,54.00
2023-03-29T05:27:45.933Z,54.00
2023-03-29T05:30:15.524Z,54.00
2023-03-29T05:32:52.914Z,53.90
2023-03-29T05:35:26.363Z,53.90
2023-03-29T05:37:56.408Z,54.00
2023-03-29T05:40:26.371Z,54.10
2023-03-29T05:43:13.345Z,54.30
2023-03-29T05:45:40.736Z,54.30
2023-03-29T05:48:09.116Z,54.30
2023-03-29T05:50:38.995Z,54.30
2023-03-29T05:53:06.865Z,54.40
2023-03-29T05:55:34.117Z,54.30
2023-03-29T05:58:01.386Z,54.40
2023-03-29T06:00:34.606Z,54.40
2023-03-29T06:03:21.123Z,55.10
2023-03-29T06:06:02.475Z,54.20
2023-03-29T06:08:31.749Z,54.30
2023-03-29T06:11:24.326Z,54.10
2023-03-29T06:14:19.051Z,54.10
2023-03-29T06:16:51.861Z,54.00
2023-03-29T06:19:19.402Z,54.10
2023-03-29T06:21:47.376Z,54.00
2023-03-29T06:24:19.121Z,54.00
2023-03-29T06:26:53.781Z,53.90
2023-03-29T06:29:21.155Z,54.00
2023-03-29T06:31:49.302Z,53.80
2023-03-29T06:34:39.641Z,53.80
2023-03-29T06:37:22.721Z,53.80
2023-03-29T06:39:57.114Z,53.80
2023-03-29T06:42:34.622Z,53.60
2023-03-29T06:45:24.353Z,53.60
2023-03-29T06:47:54.395Z,53.70
2023-03-29T06:50:22.347Z,53.60
2023-03-29T06:53:02.387Z,53.50
2023-03-29T06:55:31.709Z,53.50
2023-03-29T06:58:09.282Z,53.50
2023-03-29T07:00:39.445Z,53.40
2023-03-29T07:03:20.156Z,53.20
2023-03-29T07:05:52.197Z,53.10
2023-03-29T07:08:22.599Z,53.20
2023-03-29T07:11:03.708Z,53.20
2023-03-29T07:13:33.160Z,53.30
2023-03-29T07:16:03.142Z,53.10
2023-03-29T07:18:48.803Z,53.10
2023-03-29T07:21:45.186Z,52.70
2023-03-29T07:24:13.059Z,52.50
2023-03-29T07:26:52.385Z,52.60
2023-03-29T07:29:23.554Z,52.70
2023-03-29T07:31:50.727Z,52.70
2023-03-29T07:34:43.611Z,52.90
2023-03-29T07:37:24.807Z,53.10
2023-03-29T07:39:53.644Z,52.80
2023-03-29T07:42:30.356Z,52.80
2023-03-29T07:44:58.684Z,52.90
2023-03-29T07:47:31.427Z,53.10
2023-03-29T07:49:59.313Z,53.00
2023-03-29T07:52:28.675Z,53.10
2023-03-29T07:54:56.739Z,53.10
2023-03-29T07:57:29.013Z,53.20
2023-03-29T07:59:58.850Z,53.30
2023-03-29T08:02:30.232Z,53.60
2023-03-29T08:05:02.640Z,53.70
2023-03-29T08:07:31.102Z,53.50
2023-03-29T08:10:04.391Z,53.50
2023-03-29T08:12:50.625Z,53.50
2023-03-29T08:15:20.014Z,53.50
2023-03-29T08:17:47.427Z,53.60
2023-03-29T08:20:16.384Z,53.60
2023-03-29T08:22:46.492Z,54.20
2023-03-29T08:25:42.648Z,53.60
2023-03-29T08:28:10.500Z,53.50
2023-03-29T08:30:45.824Z,53.60
2023-03-29T08:33:13.288Z,53.60
2023-03-29T08:35:41.496Z,53.70
2023-03-29T08:38:16.365Z,54.00
2023-03-29T08:40:43.682Z,54.00
2023-03-29T08:43:41.492Z,53.90
2023-03-29T08:46:19.891Z,53.90
2023-03-29T08:49:04.613Z,53.80
2023-03-29T08:51:40.567Z,53.90
2023-03-29T08:54:25.136Z,53.80
2023-03-29T08:57:27.267Z,53.70
2023-03-29T09:00:02.044Z,53.80
2023-03-29T09:02:34.074Z,53.50
2023-03-29T09:05:18.742Z,53.50
2023-03-29T09:07:56.169Z,53.50
2023-03-29T09:10:35.187Z,53.20
2023-03-29T09:13:19.563Z,53.00
2023-03-29T09:15:54.342Z,53.00
2023-03-29T09:18:47.022Z,53.00
2023-03-29T09:21:56.466Z,53.20
2023-03-29T09:24:51.689Z,53.30
2023-03-29T09:27:26.797Z,53.50
2023-03-29T09:30:26.300Z,53.80
2023-03-29T09:33:11.887Z,54.20
2023-03-29T09:36:17.656Z,54.30
2023-03-29T09:38:49.100Z,54.30
2023-03-29T09:41:21.431Z,54.50
2023-03-29T09:43:51.411Z,54.60
2023-03-29T09:46:29.257Z,54.50
2023-03-29T09:48:57.321Z,54.50
2023-03-29T09:51:28.183Z,54.40
2023-03-29T09:53:57.463Z,54.50
2023-03-29T09:56:44.774Z,54.80
2023-03-29T09:59:15.231Z,54.70
2023-03-29T10:01:46.706Z,54.70
2023-03-29T10:04:16.909Z,54.80
2023-03-29T10:06:52.238Z,55.00
2023-03-29T10:09:27.597Z,55.00
2023-03-29T10:12:06.820Z,54.90
2023-03-29T10:14:42.899Z,54.90
2023-03-29T10:17:29.664Z,55.00
2023-03-29T10:19:59.553Z,55.10
2023-03-29T10:22:34.872Z,54.80
2023-03-29T10:25:02.333Z,54.90
2023-03-29T10:27:31.202Z,54.70
2023-03-29T10:30:10.374Z,54.60
2023-03-29T10:32:38.687Z,54.60
2023-03-29T10:35:13.564Z,54.70
2023-03-29T10:37:44.858Z,54.60
2023-03-29T10:40:32.963Z,54.70
2023-03-29T10:43:22.071Z,54.80
2023-03-29T10:45:51.892Z,54.90
2023-03-29T10:48:19.551Z,55.00
2023-03-29T10:50:53.240Z,55.10
2023-03-29T10:53:20.194Z,55.00
2023-03-29T10:56:10.944Z,55.00
2023-03-29T10:58:47.306Z,54.90
2023-03-29T11:01:58.389Z,54.90
2023-03-29T11:04:28.464Z,54.80
2023-03-29T11:07:31.664Z,54.90
2023-03-29T11:10:35.383Z,54.80
2023-03-29T11:13:22.097Z,55.00
2023-03-29T11:16:28.819Z,54.90
2023-03-29T11:19:26.045Z,55.00
2023-03-29T11:22:27.462Z,54.70
2023-03-29T11:25:17.290Z,54.60
2023-03-29T11:28:09.709Z,54.70
2023-03-29T11:30:36.744Z,54.90
2023-03-29T11:33:39.463Z,55.80
2023-03-29T11:36:39.113Z,55.40
2023-03-29T11:39:22.228Z,55.30
2023-03-29T11:41:54.659Z,55.10
2023-03-29T11:44:28.873Z,54.90
2023-03-29T11:47:11.440Z,54.80
2023-03-29T11:49:44.207Z,54.80
2023-03-29T11:52:36.494Z,54.60
2023-03-29T11:55:10.138Z,54.40
2023-03-29T11:58:06.325Z,54.10
2023-03-29T12:00:39.278Z,54.20
2023-03-29T12:03:34.562Z,53.70
2023-03-29T12:06:08.559Z,53.60
2023-03-29T12:08:44.923Z,53.40
2023-03-29T12:11:27.405Z,53.10
2023-03-29T12:14:10.765Z,53.20
2023-03-29T12:16:53.548Z,53.40
2023-03-29T12:19:41.795Z,53.50
2023-03-29T12:22:10.662Z,53.40
2023-03-29T12:24:44.298Z,52.90
2023-03-29T12:27:20.842Z,53.00
2023-03-29T12:30:03.746Z,52.90
2023-03-29T12:32:43.152Z,52.90
2023-03-29T12:35:34.400Z,52.30
2023-03-29T12:38:25.499Z,52.40
2023-03-29T12:41:23.372Z,52.50
2023-03-29T12:44:16.560Z,52.70
2023-03-29T12:47:00.444Z,52.60
2023-03-29T12:49:32.882Z,52.40
2023-03-29T12:52:03.519Z,52.70
2023-03-29T12:54:34.087Z,52.80
2023-03-29T12:57:20.958Z,52.70
2023-03-29T12:59:49.753Z,52.50
2023-03-29T13:02:19.454Z,52.70
2023-03-29T13:04:58.917Z,52.70
2023-03-29T13:07:29.756Z,52.50
2023-03-29T13:10:24.306Z,52.50
2023-03-29T13:12:51.475Z,52.40
2023-03-29T13:15:18.943Z,52.20
2023-03-29T13:17:48.850Z,51.90
2023-03-29T13:20:54.804Z,52.10
2023-03-29T13:23:43.259Z,52.10
2023-03-29T13:26:17.572Z,52.00
2023-03-29T13:28:56.017Z,51.90
2023-03-29T13:31:46.786Z,51.60
2023-03-29T13:34:35.507Z,51.10
2023-03-29T13:37:05.663Z,50.90
2023-03-29T13:39:37.028Z,50.50
2023-03-29T13:42:37.420Z,50.30
2023-03-29T13:45:14.146Z,50.20
2023-03-29T13:47:54.925Z,50.00
2023-03-29T13:50:38.706Z,50.10
2023-03-29T13:53:38.202Z,49.90
2023-03-29T13:56:12.178Z,50.40
2023-03-29T13:58:46.586Z,50.50
2023-03-29T14:01:17.161Z,50.50
2023-03-29T14:03:46.919Z,50.40
2023-03-29T14:06:18.186Z,50.40
2023-03-29T14:08:45.906Z,50.60
2023-03-29T14:11:43.575Z,50.80
2023-03-29T14:14:11.420Z,50.60
2023-03-29T14:16:40.771Z,50.40
2023-03-29T14:19:31.648Z,50.50
2023-03-29T14:22:01.789Z,50.40
2023-03-29T14:24:40.186Z,50.20
2023-03-29T14:27:12.132Z,50.30
2023-03-29T14:29:39.242Z,50.20
2023-03-29T14:32:16.694Z,50.20
2023-03-29T14:34:48.226Z,50.30
2023-03-29T14:37:22.657Z,50.50
2023-03-29T14:39:50.716Z,50.70
2023-03-29T14:42:26.854Z,50.60
2023-03-29T14:45:06.045Z,50.90
2023-03-29T14:47:34.394Z,51.00
2023-03-29T14:50:01.906Z,50.70
2023-03-29T14:52:30.928Z,50.90
2023-03-29T14:55:04.170Z,50.80
2023-03-29T14:57:36.650Z,50.70
2023-03-29T15:00:28.991Z,50.80
2023-03-29T15:03:01.866Z,51.00
2023-03-29T15:05:35.118Z,51.00
2023-03-29T15:08:03.356Z,51.10
2023-03-29T15:10:38.095Z,51.10
2023-03-29T15:13:07.928Z,51.30
2023-03-29T15:15:38.537Z,51.50
2023-03-29T15:18:07.502Z,52.00
2023-03-29T15:20:38.527Z,52.10
2023-03-29T15:23:14.796Z,52.00
2023-03-29T15:26:12.463Z,52.20
2023-03-29T15:28:55.660Z,52.30
2023-03-29T15:31:32.496Z,52.40
2023-03-29T15:34:09.532Z,52.50
2023-03-29T15:36:42.410Z,52.60
2023-03-29T15:39:17.199Z,52.60
2023-03-29T15:41:46.389Z,52.70
2023-03-29T15:44:17.395Z,52.90
2023-03-29T15:46:44.599Z,53.40
2023-03-29T15:49:12.793Z,53.60
2023-03-29T15:51:40.794Z,53.80
2023-03-29T15:54:09.250Z,54.00
2023-03-29T15:56:46.504Z,54.10
2023-03-29T15:59:18.020Z,54.70
2023-03-29T16:01:49.535Z,55.20
2023-03-29T16:04:21.979Z,55.20
2023-03-29T16:06:55.647Z,55.10
2023-03-29T16:09:23.004Z,55.50
2023-03-29T16:11:50.432Z,55.60
2023-03-29T16:14:23.931Z,56.10
2023-03-29T16:17:04.378Z,55.90
2023-03-29T16:19:32.420Z,55.60
2023-03-29T16:22:09.926Z,55.80
2023-03-29T16:24:37.325Z,55.40
2023-03-29T16:27:04.794Z,55.70
2023-03-29T16:29:38.157Z,55.90
2023-03-29T16:32:07.238Z,55.80
2023-03-29T16:34:36.036Z,56.40
2023-03-29T16:37:04.619Z,56.40
2023-03-29T16:39:31.840Z,56.40
2023-03-29T16:41:58.769Z,56.60
2023-03-29T16:44:27.881Z,56.50
2023-03-29T16:46:57.572Z,56.50
2023-03-29T16:49:24.657Z,56.30
2023-03-29T16:51:53.888Z,56.50
2023-03-29T16:54:20.992Z,56.40
2023-03-29T16:56:48.335Z,56.30
2023-03-29T16:59:15.529Z,56.30
2023-03-29T17:01:42.903Z,56.40
2023-03-29T17:04:09.935Z,56.20
2023-03-29T17:06:37.109Z,56.40
2023-03-29T17:09:06.201Z,56.50
2023-03-29T17:11:33.694Z,56.40
2023-03-29T17:14:00.791Z,56.30
2023-03-29T17:16:29.198Z,56.60
2023-03-29T17:19:00.649Z,56.90
2023-03-29T17:21:29.320Z,56.30
2023-03-29T17:23:56.512Z,57.40
2023-03-29T17:26:23.872Z,57.00
2023-03-29T17:28:57.698Z,56.90
2023-03-29T17:31:24.769Z,57.10
2023-03-29T17:33:52.344Z,57.00
2023-03-29T17:36:23.913Z,57.20
2023-03-29T17:38:51.498Z,56.90
2023-03-29T17:41:19.260Z,57.10
2023-03-29T17:43:47.906Z,57.30
2023-03-29T17:46:16.637Z,57.10
2023-03-29T17:48:43.742Z,57.40
2023-03-29T17:51:10.818Z,57.50
2023-03-29T17:53:37.841Z,57.30
2023-03-29T17:56:06.634Z,57.50
2023-03-29T17:58:33.651Z,57.70
2023-03-29T18:01:07.924Z,57.90
2023-03-29T18:03:35.159Z,57.80
2023-03-29T18:06:03.265Z,57.80
2023-03-29T18:08:31.357Z,57.80
2023-03-29T18:11:09.954Z,57.70
2023-03-29T18:13:37.354Z,57.70
2023-03-29T18:16:07.011Z,57.70
2023-03-29T18:18:34.894Z,57.70
2023-03-29T18:21:02.405Z,58.00
2023-03-29T18:23:29.872Z,57.80
2023-03-29T18:26:04.081Z,58.00
2023-03-29T18:28:31.952Z,58.20
2023-03-29T18:30:59.052Z,58.20
2023-03-29T18:33:26.360Z,58.40
2023-03-29T18:35:53.388Z,58.30
2023-03-29T18:38:22.761Z,58.10
2023-03-29T18:40:50.645Z,58.30
2023-03-29T18:43:18.464Z,58.70
2023-03-29T18:45:47.749Z,58.70
2023-03-29T18:48:15.600Z,58.90
2023-03-29T18:50:47.037Z,59.10
2023-03-29T18:53:14.767Z,59.20
2023-03-29T18:55:43.137Z,59.20
2023-03-29T18:58:11.539Z,59.30
2023-03-29T19:00:39.671Z,59.40
2023-03-29T19:03:07.981Z,59.20
2023-03-29T19:05:39.696Z,59.60
2023-03-29T19:08:09.113Z,59.40
2023-03-29T19:10:40.637Z,60.00
2023-03-29T19:13:08.793Z,60.30
2023-03-29T19:15:36.122Z,60.30
2023-03-29T19:18:04.444Z,60.40
2023-03-29T19:20:31.584Z,60.40
2023-03-29T19:22:58.662Z,60.70
2023-03-29T19:25:25.914Z,60.50
2023-03-29T19:27:52.893Z,60.50
2023-03-29T19:30:23.451Z,60.60
2023-03-29T19:32:51.581Z,60.60
2023-03-29T19:35:19.015Z,60.70
2023-03-29T19:37:45.968Z,60.80
2023-03-29T19:40:13.620Z,60.90
2023-03-29T19:42:41.351Z,60.70
2023-03-29T19:45:10.071Z,60.90
2023-03-29T19:47:37.296Z,61.00
2023-03-29T19:50:05.168Z,60.90
2023-03-29T19:52:32.933Z,60.90
2023-03-29T19:55:00.129Z,61.00
2023-03-29T19:57:28.360Z,60.90
2023-03-29T19:59:55.560Z,61.10
2023-03-29T20:02:23.597Z,60.90
2023-03-29T20:04:50.561Z,61.10
2023-03-29T20:07:17.642Z,61.20
2023-03-29T20:09:45.999Z,61.10
2023-03-29T20:12:13.984Z,61.10
2023-03-29T20:14:43.217Z,61.20
2023-03-29T20:17:10.590Z,61.20
2023-03-29T20:19:37.534Z,61.00
2023-03-29T20:22:06.097Z,61.10
2023-03-29T20:24:35.152Z,61.20
2023-03-29T20:27:04.045Z,61.00
2023-03-29T20:29:34.893Z,60.90
2023-03-29T20:32:02.577Z,61.10
2023-03-29T20:34:29.668Z,61.30
2023-03-29T20:37:00.852Z,61.10
2023-03-29T20:39:29.656Z,61.20
2023-03-29T20:41:56.994Z,61.10
2023-03-29T20:44:26.181Z,61.20
2023-03-29T20:47:14.357Z,61.40
2023-03-29T20:49:43.089Z,61.30
2023-03-29T20:52:15.435Z,61.40
2023-03-29T20:54:44.295Z,61.40
2023-03-29T20:57:16.928Z,61.20
2023-03-29T20:59:45.344Z,61.10
2023-03-29T21:02:20.915Z,61.20
2023-03-29T21:04:52.473Z,61.10
2023-03-29T21:07:21.406Z,61.00
2023-03-29T21:09:50.016Z,61.10
2023-03-29T21:12:17.703Z,61.10
2023-03-29T21:14:44.885Z,60.90
2023-03-29T21:17:12.063Z,60.90
2023-03-29T21:19:39.617Z,60.90
2023-03-29T21:22:06.879Z,60.80
2023-03-29T21:24:36.844Z,60.90
2023-03-29T21:27:04.530Z,60.90
2023-03-29T21:29:31.635Z,60.70
2023-03-29T21:31:59.440Z,60.80
2023-03-29T21:34:26.533Z,60.80
2023-03-29T21:36:53.575Z,60.70
2023-03-29T21:39:21.301Z,60.60
2023-03-29T21:41:48.459Z,60.40
2023-03-29T21:44:15.491Z,60.40
2023-03-29T21:46:42.560Z,60.40
2023-03-29T21:49:09.576Z,60.30
2023-03-29T21:51:36.656Z,60.20
2023-03-29T21:54:03.912Z,60.30
2023-03-29T21:56:30.932Z,60.30
2023-03-29T21:58:57.902Z,60.20
2023-03-29T22:01:24.960Z,60.10
2023-03-29T22:03:52.150Z,60.00
2023-03-29T22:06:20.817Z,60.00
2023-03-29T22:08:50.307Z,60.00
2023-03-29T22:11:17.392Z,60.00
2023-03-29T22:13:44.706Z,59.90
2023-03-29T22:16:18.964Z,60.00
2023-03-29T22:18:49.458Z,60.10
2023-03-29T22:21:24.844Z,60.00
2023-03-29T22:23:54.532Z,60.10
2023-03-29T22:26:30.615Z,60.20
2023-03-29T22:28:59.198Z,60.20
2023-03-29T22:31:28.582Z,60.30
2023-03-29T22:33:56.335Z,60.20
2023-03-29T22:36:26.461Z,60.30
2023-03-29T22:38:54.995Z,60.30
2023-03-29T22:41:23.904Z,60.40
2023-03-29T22:43:54.889Z,60.40
2023-03-29T22:46:22.484Z,60.60
2023-03-29T22:48:49.898Z,60.50
2023-03-29T22:51:16.914Z,60.60
2023-03-29T22:53:44.688Z,60.50
2023-03-29T22:56:13.386Z,60.60
2023-03-29T22:58:41.153Z,60.70
2023-03-29T23:01:09.708Z,60.60
2023-03-29T23:03:36.996Z,60.60
2023-03-29T23:06:04.700Z,60.80
2023-03-29T23:08:33.022Z,60.70
2023-03-29T23:11:00.605Z,60.70
2023-03-29T23:13:29.595Z,60.70
2023-03-29T23:15:59.223Z,60.70
2023-03-29T23:18:28.719Z,60.60
2023-03-29T23:20:57.752Z,60.60
2023-03-29T23:23:26.987Z,60.70
2023-03-29T23:25:55.694Z,60.80
2023-03-29T23:28:27.611Z,60.80
2023-03-29T23:31:10.654Z,60.80
2023-03-29T23:33:41.266Z,60.80
2023-03-29T23:36:14.390Z,60.70
2023-03-29T23:38:42.463Z,60.60
2023-03-29T23:41:13.137Z,60.70
2023-03-29T23:43:43.143Z,60.80
2023-03-29T23:46:15.737Z,61.00
2023-03-29T23:48:50.239Z,61.10
2023-03-29T23:51:18.745Z,60.60
2023-03-29T23:53:47.429Z,61.20
2023-03-29T23:56:14.614Z,62.30
2023-03-29T23:58:41.907Z,62.70
